Time;durP1;ratioP1;P1;durP2;ratioP2;P2;SDS_P1;SDS_P2;PMS_P1;PMS_P2;Temp;Humidity;BMP_temperature;BMP_pressure;BME280_temperature;BME280_humidity;BME280_pressure;Samples;Min_cycle;Max_cycle;Signal;HPM_P1;HPM_P2
2022/01/08 00:00:26;;;;;;;5.10;4.10;;;-1.50;99.90;;;;;;5029494;28;20447;-79
2022/01/08 00:02:54;;;;;;;4.57;4.17;;;-1.30;99.90;;;;;;5029173;28;20560;-79
2022/01/08 00:05:21;;;;;;;4.40;3.40;;;-1.20;99.90;;;;;;5032855;28;21844;-78
2022/01/08 00:07:49;;;;;;;6.13;3.80;;;-1.10;99.90;;;;;;5027279;28;20843;-79
2022/01/08 00:10:16;;;;;;;5.53;4.20;;;-1.20;99.90;;;;;;5031130;28;20471;-79
2022/01/08 00:12:45;;;;;;;4.33;3.90;;;-1.40;99.90;;;;;;5030599;28;20483;-79
2022/01/08 00:15:13;;;;;;;8.37;4.87;;;-1.30;99.90;;;;;;5041962;28;20877;-79
2022/01/08 00:17:40;;;;;;;5.83;5.23;;;-1.30;99.90;;;;;;5030000;28;20535;-79
2022/01/08 00:20:08;;;;;;;5.30;4.80;;;-1.20;99.90;;;;;;5033298;28;20477;-80
2022/01/08 00:22:35;;;;;;;5.07;4.60;;;-1.20;99.90;;;;;;5036758;28;20484;-79
2022/01/08 00:25:02;;;;;;;6.17;5.57;;;-1.20;99.90;;;;;;5041542;28;20470;-79
2022/01/08 00:27:28;;;;;;;5.70;4.77;;;-1.20;99.90;;;;;;5028798;28;21063;-79
2022/01/08 00:29:57;;;;;;;6.27;3.70;;;-1.20;99.90;;;;;;5037333;28;20451;-79
2022/01/08 00:32:24;;;;;;;6.13;4.20;;;-1.20;99.90;;;;;;5038194;28;20474;-79
2022/01/08 00:34:51;;;;;;;17.57;9.47;;;-1.20;99.90;;;;;;5031481;28;20460;-80
2022/01/08 00:37:18;;;;;;;11.47;9.47;;;-1.10;99.90;;;;;;5028525;28;20506;-79
2022/01/08 00:39:47;;;;;;;17.10;9.40;;;-1.10;99.90;;;;;;5033001;28;20963;-79
2022/01/08 00:42:14;;;;;;;12.00;7.17;;;-1.10;99.90;;;;;;5031277;28;20457;-79
2022/01/08 00:44:41;;;;;;;4.87;4.23;;;-1.30;99.90;;;;;;5031898;28;20476;-79
2022/01/08 00:47:10;;;;;;;5.40;4.43;;;-1.60;99.90;;;;;;5043822;28;20586;-79
2022/01/08 00:49:37;;;;;;;4.60;4.20;;;-1.70;99.90;;;;;;5036709;28;20488;-79
2022/01/08 00:52:04;;;;;;;5.60;4.00;;;-1.60;99.90;;;;;;5037265;28;20447;-79
2022/01/08 00:54:31;;;;;;;5.20;3.97;;;-1.50;99.90;;;;;;5036791;28;20998;-79
2022/01/08 00:56:58;;;;;;;6.53;4.57;;;-1.40;99.90;;;;;;5036495;28;20444;-79
2022/01/08 00:59:25;;;;;;;4.00;3.60;;;-1.40;99.90;;;;;;5037277;28;20507;-79
2022/01/08 01:01:52;;;;;;;6.40;4.53;;;-1.50;99.90;;;;;;5035560;28;20507;-79
2022/01/08 01:04:20;;;;;;;8.57;6.10;;;-1.50;99.90;;;;;;5039633;28;20912;-79
2022/01/08 01:06:47;;;;;;;7.50;6.20;;;-1.50;99.90;;;;;;5036806;28;20511;-79
2022/01/08 01:09:14;;;;;;;8.50;6.77;;;-1.40;99.90;;;;;;5033526;28;20486;-79
2022/01/08 01:11:41;;;;;;;6.77;5.57;;;-1.40;99.90;;;;;;5042092;28;20893;-79
2022/01/08 01:14:08;;;;;;;6.40;5.80;;;-1.30;99.90;;;;;;5046417;28;20536;-79
2022/01/08 01:16:35;;;;;;;5.03;4.10;;;-1.30;99.90;;;;;;5033773;28;20475;-79
2022/01/08 01:19:04;;;;;;;4.43;3.20;;;-1.20;99.90;;;;;;5030939;28;20507;-79
2022/01/08 01:21:32;;;;;;;4.33;3.93;;;-1.20;99.90;;;;;;5041187;28;20463;-79
2022/01/08 01:24:06;;;;;;;4.03;3.50;;;-1.20;99.90;;;;;;5029279;28;20523;-79
2022/01/08 01:26:34;;;;;;;4.00;3.30;;;-1.20;99.90;;;;;;5031975;28;20487;-79
2022/01/08 01:29:21;;;;;;;4.10;2.80;;;-1.50;99.90;;;;;;5042878;28;21038;-79
2022/01/08 01:43:18;;;;;;;3.00;2.73;;;-2.30;99.90;;;;;;5040458;28;20449;-79
2022/01/08 01:48:28;;;;;;;3.10;2.77;;;-2.60;99.90;;;;;;5044202;28;20542;-79
2022/01/08 01:50:55;;;;;;;4.30;3.43;;;-2.40;99.90;;;;;;5035201;28;20493;-79
2022/01/08 01:53:23;;;;;;;3.20;2.30;;;-2.30;99.90;;;;;;5038775;28;20498;-79
2022/01/08 01:55:51;;;;;;;2.40;2.20;;;-2.10;99.90;;;;;;5032311;28;20483;-79
2022/01/08 01:58:18;;;;;;;2.70;2.20;;;-2.00;99.90;;;;;;5031371;28;20505;-79
2022/01/08 02:00:48;;;;;;;7.60;2.83;;;-1.90;99.90;;;;;;5035735;28;20489;-79
2022/01/08 02:03:15;;;;;;;2.60;2.40;;;-1.80;99.90;;;;;;5040302;28;20541;-79
2022/01/08 02:05:46;;;;;;;4.17;2.60;;;-1.80;99.90;;;;;;5042111;28;20523;-79
2022/01/08 02:08:14;;;;;;;2.57;2.37;;;-1.80;99.90;;;;;;5027099;28;20470;-79
2022/01/08 02:10:42;;;;;;;4.30;2.80;;;-1.80;99.90;;;;;;5038853;28;20553;-79
2022/01/08 02:13:09;;;;;;;3.07;2.77;;;-1.80;99.90;;;;;;5037472;28;20536;-79
2022/01/08 02:15:36;;;;;;;2.17;1.97;;;-1.90;99.90;;;;;;5047215;28;20484;-78
2022/01/08 02:18:04;;;;;;;4.20;2.30;;;-1.90;99.90;;;;;;5035770;28;21031;-79
2022/01/08 02:20:33;;;;;;;3.07;2.53;;;-1.90;99.90;;;;;;5027646;28;20455;-79
2022/01/08 02:23:00;;;;;;;4.30;3.90;;;-1.90;99.90;;;;;;5041141;22;20473;-50
2022/01/08 02:25:27;;;;;;;6.00;3.87;;;-1.90;99.90;;;;;;5041574;28;21065;-49
2022/01/08 02:27:54;;;;;;;5.10;4.50;;;-1.90;99.90;;;;;;5038562;28;20512;-50
2022/01/08 02:30:21;;;;;;;3.40;3.10;;;-1.90;99.90;;;;;;5038537;28;20484;-50
2022/01/08 02:32:48;;;;;;;2.80;2.60;;;-1.90;99.90;;;;;;5038115;28;20882;-50
2022/01/08 02:35:16;;;;;;;3.10;2.90;;;-1.90;99.90;;;;;;5040132;28;20484;-49
2022/01/08 02:37:44;;;;;;;3.20;2.90;;;-2.00;99.90;;;;;;5097295;23;20532;-57
2022/01/08 02:40:12;;;;;;;2.40;2.00;;;-2.00;99.90;;;;;;5052766;28;20472;-57
2022/01/08 02:42:49;;;;;;;2.83;2.50;;;-2.20;99.90;;;;;;5050291;28;20825;-56
2022/01/08 02:45:17;;;;;;;2.10;1.90;;;-2.10;99.90;;;;;;5048377;28;20509;-57
2022/01/08 02:47:44;;;;;;;1.80;1.70;;;-2.30;99.90;;;;;;5048987;28;20570;-57
2022/01/08 02:50:12;;;;;;;2.33;2.20;;;-2.40;99.90;;;;;;5049889;28;20501;-57
2022/01/08 02:52:41;;;;;;;2.67;2.20;;;-2.50;99.90;;;;;;5049632;28;20477;-57
2022/01/08 02:55:11;;;;;;;1.83;1.73;;;-2.40;99.90;;;;;;5042815;28;20481;-57
2022/01/08 02:57:38;;;;;;;2.20;2.00;;;-2.30;99.90;;;;;;5047861;28;20985;-56
2022/01/08 03:00:07;;;;;;;2.43;2.23;;;-2.30;99.90;;;;;;5047169;28;20477;-57
2022/01/08 03:02:34;;;;;;;1.70;1.60;;;-2.30;99.90;;;;;;5047703;28;20484;-57
2022/01/08 03:05:01;;;;;;;2.40;2.13;;;-2.50;99.90;;;;;;5052330;28;20482;-57
2022/01/08 03:07:28;;;;;;;2.20;2.00;;;-2.80;99.90;;;;;;5044821;28;21008;-56
2022/01/08 03:09:57;;;;;;;2.80;1.60;;;-3.00;99.90;;;;;;5046429;28;20485;-57
2022/01/08 03:12:27;;;;;;;4.30;3.00;;;-3.00;99.90;;;;;;5048211;28;20446;-57
2022/01/08 03:14:54;;;;;;;4.17;2.67;;;-2.80;99.90;;;;;;5039824;28;20453;-57
2022/01/08 03:17:21;;;;;;;3.57;2.20;;;-2.70;99.90;;;;;;5046970;28;20550;-57
2022/01/08 03:19:50;;;;;;;1.23;1.20;;;-2.60;99.90;;;;;;5047806;28;20474;-57
2022/01/08 03:22:18;;;;;;;3.03;2.20;;;-3.50;99.90;;;;;;5048492;28;20449;-56
2022/01/08 03:24:44;;;;;;;3.07;2.87;;;-3.60;99.90;;;;;;5047868;28;20930;-56
2022/01/08 03:27:12;;;;;;;2.23;1.73;;;-3.40;99.90;;;;;;5048287;28;20513;-56
2022/01/08 03:29:40;;;;;;;2.93;2.03;;;-3.20;99.90;;;;;;5043579;28;20465;-56
2022/01/08 03:32:08;;;;;;;2.30;2.10;;;-3.00;99.90;;;;;;5046047;28;20830;-56
2022/01/08 03:34:34;;;;;;;2.27;1.90;;;-2.90;99.90;;;;;;5045580;28;20482;-56
2022/01/08 03:37:01;;;;;;;4.33;2.33;;;-2.70;99.90;;;;;;5048636;28;20976;-56
2022/01/08 03:39:28;;;;;;;3.17;2.93;;;-2.70;99.90;;;;;;5049300;28;20461;-56
2022/01/08 03:41:55;;;;;;;2.40;1.80;;;-2.60;99.90;;;;;;5046167;28;20469;-57
2022/01/08 03:44:22;;;;;;;2.70;2.20;;;-2.60;99.90;;;;;;5048551;28;20472;-57
2022/01/08 03:46:51;;;;;;;2.20;1.90;;;-2.60;99.90;;;;;;5047146;28;20532;-56
2022/01/08 03:49:25;;;;;;;3.40;2.30;;;-2.60;99.90;;;;;;5048024;28;20876;-57
2022/01/08 03:51:53;;;;;;;2.60;2.40;;;-2.50;99.90;;;;;;5049066;28;20527;-57
2022/01/08 03:54:21;;;;;;;2.20;1.80;;;-2.50;99.90;;;;;;5042547;28;20954;-57
2022/01/08 03:56:48;;;;;;;1.93;1.80;;;-2.70;99.90;;;;;;5041149;28;20489;-57
2022/01/08 03:59:15;;;;;;;2.70;2.13;;;-2.90;99.90;;;;;;5044169;28;20482;-57
2022/01/08 04:01:43;;;;;;;2.13;1.93;;;-2.80;99.90;;;;;;5046717;28;20445;-57
2022/01/08 04:04:11;;;;;;;2.97;1.80;;;-2.80;99.90;;;;;;5046453;28;20514;-56
2022/01/08 04:06:38;;;;;;;3.07;2.40;;;-2.80;99.90;;;;;;5044385;28;20457;-56
2022/01/08 04:09:05;;;;;;;1.97;1.70;;;-2.70;99.90;;;;;;5040454;28;20923;-57
2022/01/08 04:11:32;;;;;;;2.10;1.83;;;-3.00;99.90;;;;;;5044310;28;20977;-57
2022/01/08 04:13:58;;;;;;;3.00;2.40;;;-2.90;99.90;;;;;;5048897;28;21023;-57
2022/01/08 04:16:30;;;;;;;1.93;1.80;;;-2.80;99.90;;;;;;5047190;28;20457;-56
2022/01/08 04:18:58;;;;;;;1.70;1.40;;;-2.70;99.90;;;;;;5046453;28;20685;-56
2022/01/08 04:24:13;;;;;;;2.10;1.93;;;-2.60;99.90;;;;;;5045039;28;20442;-55
2022/01/08 04:26:40;;;;;;;1.73;1.63;;;-2.60;99.90;;;;;;5051139;28;20890;-56
2022/01/08 04:29:07;;;;;;;1.27;1.17;;;-2.50;99.90;;;;;;5052453;28;20489;-56
2022/01/08 04:31:34;;;;;;;1.83;1.40;;;-2.50;99.90;;;;;;5047253;28;20486;-56
2022/01/08 04:34:01;;;;;;;1.07;1.00;;;-2.40;99.90;;;;;;5051969;28;20482;-57
2022/01/08 04:36:30;;;;;;;2.30;1.67;;;-2.40;99.90;;;;;;5050978;28;20476;-56
2022/01/08 04:38:57;;;;;;;1.57;1.47;;;-2.50;99.90;;;;;;5052149;28;20481;-56
2022/01/08 04:41:23;;;;;;;2.60;1.30;;;-2.80;99.90;;;;;;5055742;28;20865;-56
2022/01/08 04:43:51;;;;;;;1.70;1.60;;;-3.10;99.90;;;;;;5050821;28;20480;-56
2022/01/08 04:46:17;;;;;;;2.73;1.53;;;-3.10;99.90;;;;;;5050803;28;20925;-56
2022/01/08 04:48:44;;;;;;;1.30;1.20;;;-3.20;99.90;;;;;;5049796;28;20516;-56
2022/01/08 04:51:11;;;;;;;1.37;1.27;;;-3.10;99.90;;;;;;5046960;28;20473;-56
2022/01/08 04:53:40;;;;;;;1.73;1.40;;;-2.90;99.90;;;;;;5044046;28;20534;-57
2022/01/08 04:56:07;;;;;;;1.13;1.03;;;-2.80;99.90;;;;;;5045056;28;20981;-56
2022/01/08 04:58:33;;;;;;;1.67;1.57;;;-3.00;99.90;;;;;;5044545;28;20469;-56
2022/01/08 05:01:00;;;;;;;1.37;1.27;;;-3.20;99.90;;;;;;5048565;28;20535;-56
2022/01/08 05:03:27;;;;;;;1.30;1.20;;;-3.20;99.90;;;;;;5048477;28;20469;-56
2022/01/08 05:05:54;;;;;;;1.50;1.40;;;-3.10;99.90;;;;;;5046698;28;20487;-56
2022/01/08 05:08:21;;;;;;;1.70;1.50;;;-3.30;99.90;;;;;;5050045;28;20513;-56
2022/01/08 05:10:49;;;;;;;4.27;3.27;;;-3.70;99.90;;;;;;5050054;28;20968;-56
2022/01/08 05:13:16;;;;;;;1.50;1.40;;;-3.90;99.90;;;;;;5050025;28;20492;-56
2022/01/08 05:15:43;;;;;;;1.67;1.30;;;-3.90;99.90;;;;;;5058536;28;20946;-55
2022/01/08 05:18:11;;;;;;;1.77;1.60;;;-3.80;99.90;;;;;;5050680;28;20481;-56
2022/01/08 05:20:40;;;;;;;2.63;1.80;;;-3.60;99.90;;;;;;5050423;28;20468;-56
2022/01/08 05:23:08;;;;;;;3.40;3.10;;;-3.50;99.90;;;;;;5044909;28;20460;-57
2022/01/08 05:25:35;;;;;;;3.57;2.37;;;-3.40;99.90;;;;;;5048163;28;20494;-56
2022/01/08 05:28:04;;;;;;;2.47;2.27;;;-3.40;99.90;;;;;;5043856;28;20484;-56
2022/01/08 05:30:31;;;;;;;4.70;2.10;;;-3.30;99.90;;;;;;5043854;28;20487;-56
2022/01/08 05:32:58;;;;;;;2.40;2.03;;;-3.30;99.90;;;;;;5044484;28;20486;-56
2022/01/08 05:35:27;;;;;;;1.70;1.60;;;-3.30;99.90;;;;;;5046106;28;20918;-56
2022/01/08 05:37:55;;;;;;;1.73;1.60;;;-3.20;99.90;;;;;;5042163;28;20516;-56
2022/01/08 05:40:22;;;;;;;1.30;1.20;;;-3.10;99.90;;;;;;5054094;28;20865;-56
2022/01/08 05:42:49;;;;;;;1.40;1.30;;;-3.00;99.90;;;;;;5051586;28;20551;-56
2022/01/08 05:45:18;;;;;;;4.30;1.97;;;-3.00;99.90;;;;;;5048332;28;20481;-56
2022/01/08 05:47:45;;;;;;;3.53;2.50;;;-3.00;99.90;;;;;;5047630;28;20566;-55
2022/01/08 05:50:12;;;;;;;1.93;1.73;;;-2.90;99.90;;;;;;5049298;28;21009;-56
2022/01/08 05:52:39;;;;;;;2.10;1.80;;;-2.90;99.90;;;;;;5049942;28;20957;-55
2022/01/08 05:55:07;;;;;;;2.10;1.90;;;-3.00;99.90;;;;;;5043132;28;20435;-55
2022/01/08 05:57:34;;;;;;;1.70;1.60;;;-2.90;99.90;;;;;;5049984;28;20489;-56
2022/01/08 06:00:01;;;;;;;2.47;2.10;;;-2.80;99.90;;;;;;5048024;28;21044;-56
2022/01/08 06:02:30;;;;;;;1.43;1.27;;;-3.10;99.90;;;;;;5051234;28;20946;-55
2022/01/08 06:04:57;;;;;;;2.10;1.90;;;-3.40;99.90;;;;;;5053865;28;20482;-56
2022/01/08 06:07:23;;;;;;;1.93;1.73;;;-3.50;99.90;;;;;;5046538;28;20917;-56
2022/01/08 06:09:50;;;;;;;5.23;2.47;;;-3.50;99.90;;;;;;5046011;28;20473;-56
2022/01/08 06:12:17;;;;;;;5.83;4.50;;;-3.30;99.90;;;;;;5043340;28;20482;-56
2022/01/08 06:14:44;;;;;;;4.80;4.13;;;-3.20;99.90;;;;;;5049442;28;20808;-56
2022/01/08 06:17:12;;;;;;;5.33;3.70;;;-3.20;99.90;;;;;;5044333;28;20493;-56
2022/01/08 06:19:40;;;;;;;5.30;4.80;;;-3.70;99.90;;;;;;5046492;28;20459;-56
2022/01/08 06:22:07;;;;;;;5.07;3.60;;;-3.60;99.90;;;;;;5049598;28;20484;-55
2022/01/08 06:24:34;;;;;;;5.53;4.70;;;-3.70;99.90;;;;;;5048775;28;20571;-56
2022/01/08 06:27:01;;;;;;;6.03;4.90;;;-3.60;99.90;;;;;;5046820;28;20500;-57
2022/01/08 06:29:28;;;;;;;4.70;4.30;;;-3.70;99.90;;;;;;5042883;28;21085;-56
2022/01/08 06:31:55;;;;;;;2.73;2.30;;;-3.60;99.90;;;;;;5043575;28;20972;-56
2022/01/08 06:34:22;;;;;;;9.13;2.83;;;-3.40;99.90;;;;;;5050910;28;20481;-56
2022/01/08 06:36:50;;;;;;;2.80;2.57;;;-3.30;99.90;;;;;;5049410;28;20513;-57
2022/01/08 06:39:18;;;;;;;3.13;2.83;;;-3.20;99.90;;;;;;5045737;28;20996;-55
2022/01/08 06:41:45;;;;;;;3.13;2.87;;;-3.10;99.90;;;;;;5045866;28;20815;-56
2022/01/08 06:44:12;;;;;;;2.80;2.60;;;-2.90;99.90;;;;;;5047020;28;20508;-56
2022/01/08 06:46:40;;;;;;;2.90;2.70;;;-2.90;99.90;;;;;;5045028;28;20490;-56
2022/01/08 06:49:07;;;;;;;2.27;2.00;;;-3.30;99.90;;;;;;5044041;28;20481;-55
2022/01/08 06:51:34;;;;;;;4.20;1.80;;;-3.20;99.90;;;;;;5048528;28;20491;-56
2022/01/08 06:54:03;;;;;;;7.63;6.00;;;-3.00;99.90;;;;;;5049317;28;20481;-56
2022/01/08 06:56:29;;;;;;;10.17;8.57;;;-2.90;99.90;;;;;;5049040;28;20548;-57
2022/01/08 06:58:56;;;;;;;13.70;3.57;;;-2.80;99.90;;;;;;5045797;28;21157;-56
2022/01/08 07:01:23;;;;;;;2.70;2.50;;;-3.00;99.90;;;;;;5045637;28;20546;-57
2022/01/08 07:03:51;;;;;;;5.03;4.17;;;-2.90;99.90;;;;;;5043036;28;20481;-55
2022/01/08 07:06:18;;;;;;;8.23;6.80;;;-2.80;99.90;;;;;;5045512;28;20850;-55
2022/01/08 07:08:44;;;;;;;7.43;6.57;;;-2.70;99.90;;;;;;5050817;28;20516;-54
2022/01/08 07:11:13;;;;;;;9.23;6.17;;;-2.60;99.90;;;;;;5048547;28;20942;-55
2022/01/08 07:13:40;;;;;;;8.87;6.33;;;-2.50;99.90;;;;;;5048532;28;20486;-55
2022/01/08 07:16:07;;;;;;;7.73;6.73;;;-2.50;99.90;;;;;;5053647;28;20472;-55
2022/01/08 07:18:34;;;;;;;31.57;11.73;;;-2.50;99.90;;;;;;5046303;28;20994;-55
2022/01/08 07:21:01;;;;;;;8.93;7.17;;;-2.60;99.90;;;;;;5046783;28;20967;-54
2022/01/08 07:23:28;;;;;;;6.40;5.40;;;-3.10;99.90;;;;;;5045082;28;20511;-56
2022/01/08 07:25:55;;;;;;;6.20;4.33;;;-3.00;99.90;;;;;;5044902;28;20472;-55
2022/01/08 07:28:23;;;;;;;5.03;4.10;;;-2.80;99.90;;;;;;5045883;28;20516;-55
2022/01/08 07:30:50;;;;;;;2.90;2.70;;;-2.70;99.90;;;;;;5046379;28;20547;-55
2022/01/08 07:33:17;;;;;;;4.20;3.83;;;-2.50;99.90;;;;;;5044011;28;20508;-55
2022/01/08 07:35:44;;;;;;;13.63;11.27;;;-2.40;99.90;;;;;;5043097;28;20957;-55
2022/01/08 07:38:11;;;;;;;11.73;10.23;;;-2.40;99.90;;;;;;5045251;28;20889;-55
2022/01/08 07:40:38;;;;;;;14.00;10.40;;;-2.30;99.90;;;;;;5046109;28;20486;-56
2022/01/08 07:43:05;;;;;;;43.93;24.37;;;-2.20;99.90;;;;;;5051005;28;20976;-56
2022/01/08 07:45:33;;;;;;;22.10;13.17;;;-3.00;99.90;;;;;;5048060;28;20449;-56
2022/01/08 07:48:00;;;;;;;17.07;10.97;;;-3.10;99.90;;;;;;5042134;28;20780;-55
2022/01/08 07:50:27;;;;;;;4.90;4.40;;;-2.90;99.90;;;;;;5042739;28;20983;-55
2022/01/08 07:52:54;;;;;;;3.53;2.77;;;-2.90;99.90;;;;;;5047906;28;20504;-59
2022/01/08 07:55:21;;;;;;;8.27;7.17;;;-2.70;99.90;;;;;;5046626;28;20473;-56
2022/01/08 07:57:49;;;;;;;21.83;16.30;;;-2.60;99.90;;;;;;5041986;28;20992;-56
2022/01/08 08:00:16;;;;;;;27.03;14.70;;;-2.40;99.90;;;;;;5046226;28;20452;-56
2022/01/08 08:02:44;;;;;;;19.00;12.30;;;-2.30;99.90;;;;;;5043966;28;20482;-56
2022/01/08 08:05:12;;;;;;;12.90;11.53;;;-2.30;99.90;;;;;;5050675;28;20479;-55
2022/01/08 08:07:40;;;;;;;11.33;10.20;;;-2.40;99.90;;;;;;5046395;28;20520;-56
2022/01/08 08:10:10;;;;;;;11.07;8.33;;;-2.70;99.90;;;;;;5045999;28;20485;-55
2022/01/08 08:12:37;;;;;;;9.03;6.10;;;-3.10;99.90;;;;;;5045614;28;20493;-55
2022/01/08 08:15:06;;;;;;;4.90;4.23;;;-3.10;99.90;;;;;;5057955;28;20519;-56
2022/01/08 08:17:33;;;;;;;4.90;4.20;;;-3.00;99.90;;;;;;5050929;28;20501;-56
2022/01/08 08:20:02;;;;;;;7.90;7.20;;;-2.80;99.90;;;;;;5047291;28;20452;-56
2022/01/08 08:22:29;;;;;;;6.10;5.50;;;-2.60;99.90;;;;;;5054092;28;20480;-55
2022/01/08 08:24:56;;;;;;;7.30;5.97;;;-2.50;99.90;;;;;;5049840;28;20478;-55
2022/01/08 08:27:23;;;;;;;7.63;6.13;;;-2.30;99.90;;;;;;5047489;28;20983;-56
2022/01/08 08:29:50;;;;;;;8.20;6.30;;;-2.20;99.90;;;;;;5043636;28;20995;-56
2022/01/08 08:32:17;;;;;;;9.57;8.57;;;-2.40;99.90;;;;;;5046161;28;20483;-56
2022/01/08 08:34:43;;;;;;;7.77;5.03;;;-2.40;99.90;;;;;;5048171;28;20883;-56
2022/01/08 08:37:12;;;;;;;6.53;5.50;;;-2.60;99.90;;;;;;5046562;28;20493;-57
2022/01/08 08:39:39;;;;;;;6.70;5.73;;;-2.80;99.90;;;;;;5038183;28;20469;-57
2022/01/08 08:42:06;;;;;;;6.93;5.50;;;-2.50;99.90;;;;;;5050620;28;20479;-56
2022/01/08 08:44:33;;;;;;;9.67;7.67;;;-2.30;99.90;;;;;;5039336;28;20477;-56
2022/01/08 08:47:00;;;;;;;11.63;9.60;;;-2.20;99.90;;;;;;5052172;28;20485;-56
2022/01/08 08:49:27;;;;;;;7.90;7.07;;;-2.00;99.90;;;;;;5045731;28;21012;-56
2022/01/08 08:51:55;;;;;;;6.40;5.67;;;-1.90;99.90;;;;;;5044324;28;20457;-56
2022/01/08 08:54:23;;;;;;;13.87;11.37;;;-1.80;99.90;;;;;;5037582;28;20447;-56
2022/01/08 08:56:50;;;;;;;9.90;9.00;;;-1.70;99.90;;;;;;5036995;28;20916;-56
2022/01/08 08:59:17;;;;;;;9.70;8.43;;;-2.00;99.90;;;;;;5040218;28;20528;-57
2022/01/08 09:01:44;;;;;;;11.40;8.13;;;-2.00;99.90;;;;;;5039279;28;20481;-57
2022/01/08 09:04:11;;;;;;;10.53;8.57;;;-1.90;99.90;;;;;;5040660;28;20537;-56
2022/01/08 09:06:38;;;;;;;9.10;7.90;;;-1.80;99.90;;;;;;5040479;28;20542;-58
2022/01/08 09:09:05;;;;;;;15.60;10.97;;;-1.90;99.90;;;;;;5045479;28;20547;-57
2022/01/08 09:11:34;;;;;;;14.17;11.87;;;-1.80;99.90;;;;;;5046894;28;20883;-57
2022/01/08 09:14:01;;;;;;;10.07;9.00;;;-1.90;99.90;;;;;;5044500;28;20456;-58
2022/01/08 09:16:28;;;;;;;8.60;7.80;;;-1.90;99.90;;;;;;5045230;28;20489;-56
2022/01/08 09:18:55;;;;;;;10.80;8.47;;;-1.80;99.90;;;;;;5042049;28;20438;-57
2022/01/08 09:21:22;;;;;;;16.07;12.40;;;-1.70;99.90;;;;;;5045126;28;20744;-57
2022/01/08 09:23:49;;;;;;;10.60;6.90;;;-1.60;99.90;;;;;;5044951;28;20478;-56
2022/01/08 09:26:16;;;;;;;7.67;6.90;;;-1.50;99.90;;;;;;5044697;28;20477;-58
2022/01/08 09:28:44;;;;;;;6.43;5.70;;;-1.40;99.90;;;;;;5046976;28;20517;-58
2022/01/08 09:31:12;;;;;;;15.27;10.70;;;-1.40;99.90;;;;;;5045476;28;20479;-57
2022/01/08 09:33:39;;;;;;;10.93;8.60;;;-1.70;99.90;;;;;;5046669;28;20482;-57
2022/01/08 09:36:07;;;;;;;12.07;7.40;;;-2.00;99.90;;;;;;5041946;28;20485;-57
2022/01/08 09:38:33;;;;;;;9.63;7.40;;;-2.10;99.90;;;;;;5043036;28;21011;-57
2022/01/08 09:41:00;;;;;;;9.37;8.00;;;-2.40;99.90;;;;;;5041839;28;20496;-55
2022/01/08 09:43:27;;;;;;;12.00;9.63;;;-2.30;99.90;;;;;;5045877;28;20460;-56
2022/01/08 09:45:56;;;;;;;10.57;9.43;;;-2.10;99.90;;;;;;5042126;28;20498;-56
2022/01/08 09:48:23;;;;;;;8.00;7.30;;;-2.10;99.90;;;;;;5041775;28;21021;-57
2022/01/08 09:50:50;;;;;;;11.57;9.70;;;-2.20;99.90;;;;;;5042892;28;20491;-57
2022/01/08 09:53:17;;;;;;;10.00;8.00;;;-2.10;99.90;;;;;;5042793;28;20460;-56
2022/01/08 09:55:44;;;;;;;11.53;9.20;;;-1.90;99.90;;;;;;5041203;28;20523;-56
2022/01/08 09:58:11;;;;;;;9.47;8.30;;;-1.80;99.90;;;;;;5044024;28;20511;-57
2022/01/08 10:00:38;;;;;;;10.83;8.37;;;-1.60;99.90;;;;;;5046734;28;20998;-56
2022/01/08 10:03:19;;;;;;;8.47;7.50;;;-1.90;99.90;;;;;;5046625;28;20486;-57
2022/01/08 10:05:48;;;;;;;9.13;8.20;;;-1.80;99.90;;;;;;5047889;28;20489;-58
2022/01/08 10:08:15;;;;;;;8.20;7.33;;;-1.70;99.90;;;;;;5042376;28;20486;-57
2022/01/08 10:10:55;;;;;;;8.30;7.47;;;-2.00;99.90;;;;;;5046850;28;20456;-58
2022/01/08 10:13:24;;;;;;;8.53;7.60;;;-2.30;99.90;;;;;;5046055;28;20473;-57
2022/01/08 10:18:40;;;;;;;9.33;6.87;;;-2.20;99.90;;;;;;5045111;28;20611;-58
2022/01/08 10:21:21;;;;;;;7.90;7.00;;;-2.00;99.90;;;;;;5043033;28;20482;-56
2022/01/08 10:23:51;;;;;;;5.57;5.07;;;-1.80;99.90;;;;;;5041408;28;20868;-57
2022/01/08 10:26:19;;;;;;;7.67;6.87;;;-1.70;99.90;;;;;;5041135;28;20477;-57
2022/01/08 10:28:49;;;;;;;10.27;8.80;;;-1.60;99.90;;;;;;5043177;28;21233;-58
2022/01/08 10:31:20;;;;;;;9.00;8.10;;;-1.50;99.90;;;;;;5046634;28;20476;-57
2022/01/08 10:33:52;;;;;;;9.43;8.20;;;-1.40;99.90;;;;;;5046780;28;20453;-57
2022/01/08 10:36:24;;;;;;;8.17;7.40;;;-1.40;99.90;;;;;;5047179;28;20510;-56
2022/01/08 10:38:52;;;;;;;10.13;6.73;;;-1.40;99.90;;;;;;5041898;28;20480;-56
2022/01/08 10:41:19;;;;;;;6.27;5.67;;;-1.40;99.90;;;;;;5047505;28;20724;-57
2022/01/08 10:43:47;;;;;;;6.80;4.87;;;-1.30;99.90;;;;;;5045038;28;20519;-56
2022/01/08 10:46:16;;;;;;;6.77;6.07;;;-1.30;99.90;;;;;;5047477;28;20480;-56
2022/01/08 10:48:46;;;;;;;7.03;5.80;;;-1.30;99.90;;;;;;5043307;28;20506;-56
2022/01/08 10:51:20;;;;;;;9.23;7.07;;;-1.30;99.90;;;;;;5046107;28;20972;-56
2022/01/08 10:54:01;;;;;;;8.70;7.90;;;-1.20;99.90;;;;;;5042251;28;20510;-56
2022/01/08 10:56:30;;;;;;;7.97;7.10;;;-1.20;99.90;;;;;;5046714;28;20977;-56
2022/01/08 10:59:08;;;;;;;10.30;9.33;;;-1.30;99.90;;;;;;5044940;28;20952;-57
2022/01/08 11:01:50;;;;;;;9.40;7.50;;;-1.30;99.90;;;;;;5039971;28;21100;-57
2022/01/08 11:04:19;;;;;;;8.17;6.87;;;-1.50;99.90;;;;;;5046902;28;20440;-57
2022/01/08 11:06:59;;;;;;;10.80;7.40;;;-1.50;99.90;;;;;;5045562;28;20542;-57
2022/01/08 11:09:27;;;;;;;8.73;6.20;;;-1.40;99.90;;;;;;5047025;28;20512;-58
2022/01/08 11:11:55;;;;;;;12.20;8.53;;;-1.30;99.90;;;;;;5046478;28;20475;-57
2022/01/08 11:14:59;;;;;;;8.20;7.40;;;-1.30;99.90;;;;;;5040447;28;20517;-57
2022/01/08 11:17:29;;;;;;;11.70;8.70;;;-1.40;99.90;;;;;;5039589;28;20504;-55
2022/01/08 11:19:58;;;;;;;8.53;7.50;;;-1.30;99.90;;;;;;5044961;28;20823;-56
2022/01/08 11:22:29;;;;;;;7.17;6.50;;;-1.40;99.90;;;;;;5048180;28;20495;-56
2022/01/08 11:24:59;;;;;;;10.63;8.63;;;-1.60;99.90;;;;;;5043658;28;20475;-56
2022/01/08 11:27:30;;;;;;;7.07;6.37;;;-1.80;99.90;;;;;;5042394;28;20505;-55
2022/01/08 11:30:04;;;;;;;6.87;6.17;;;-1.60;99.90;;;;;;5040809;28;20918;-57
2022/01/08 11:32:31;;;;;;;6.83;6.23;;;-1.40;99.90;;;;;;5037638;28;20488;-57
2022/01/08 11:34:59;;;;;;;7.43;6.83;;;-1.30;99.90;;;;;;5041539;28;20487;-57
2022/01/08 11:37:28;;;;;;;9.10;6.03;;;-1.10;99.90;;;;;;5040304;28;20505;-55
2022/01/08 11:39:56;;;;;;;8.00;7.27;;;-1.00;99.90;;;;;;5042236;28;20554;-57
2022/01/08 11:42:23;;;;;;;6.87;5.47;;;-1.00;99.90;;;;;;5045034;28;20477;-57
2022/01/08 11:44:52;;;;;;;7.87;5.60;;;-1.10;99.90;;;;;;5043756;28;20489;-57
2022/01/08 11:47:21;;;;;;;6.20;5.60;;;-1.10;99.90;;;;;;5039853;28;20467;-57
2022/01/08 11:49:50;;;;;;;6.07;5.20;;;-1.10;99.90;;;;;;5039818;28;20483;-57
2022/01/08 11:52:20;;;;;;;7.30;6.37;;;-1.10;99.90;;;;;;5041277;28;20487;-57
2022/01/08 11:54:50;;;;;;;4.93;4.37;;;-1.00;99.90;;;;;;5046053;28;20501;-57
2022/01/08 11:57:22;;;;;;;3.90;3.60;;;-0.90;99.90;;;;;;5048727;28;20495;-58
2022/01/08 11:59:56;;;;;;;3.30;3.00;;;-0.70;99.90;;;;;;5046116;28;20468;-57
2022/01/08 12:02:33;;;;;;;4.33;3.93;;;-0.50;99.90;;;;;;5046289;28;20953;-58
2022/01/08 12:05:00;;;;;;;7.90;6.70;;;-0.30;99.90;;;;;;5044787;28;20647;-58
2022/01/08 12:07:32;;;;;;;8.00;6.50;;;-0.20;99.90;;;;;;5047268;28;20564;-57
2022/01/08 12:10:11;;;;;;;6.83;6.30;;;-0.10;99.90;;;;;;5046780;28;20509;-56
2022/01/08 12:12:57;;;;;;;5.63;5.13;;;0.00;99.90;;;;;;5045951;28;20461;-57
2022/01/08 12:15:48;;;;;;;8.87;8.00;;;0.00;99.90;;;;;;5045573;28;20451;-57
2022/01/08 12:18:17;;;;;;;12.53;9.90;;;0.10;99.90;;;;;;5045576;28;20470;-56
2022/01/08 12:20:46;;;;;;;24.37;17.10;;;0.10;99.90;;;;;;5042943;28;20438;-57
2022/01/08 12:23:41;;;;;;;13.77;10.67;;;0.20;99.90;;;;;;5046049;28;20467;-57
2022/01/08 12:26:36;;;;;;;7.07;5.73;;;0.10;99.90;;;;;;5048200;28;20450;-57
2022/01/08 12:29:04;;;;;;;4.73;4.30;;;0.10;99.90;;;;;;5042153;28;20455;-56
2022/01/08 12:31:38;;;;;;;4.63;4.20;;;0.10;99.90;;;;;;5044625;28;20482;-56
2022/01/08 12:34:47;;;;;;;4.43;4.07;;;0.10;99.90;;;;;;5041166;28;20522;-56
2022/01/08 12:37:15;;;;;;;8.70;5.43;;;0.20;99.90;;;;;;5046178;28;20472;-57
2022/01/08 12:39:49;;;;;;;6.23;5.43;;;0.20;99.90;;;;;;5041334;28;20968;-56
2022/01/08 12:42:33;;;;;;;6.90;5.00;;;0.20;99.90;;;;;;5049968;28;20437;-57
2022/01/08 12:45:04;;;;;;;6.60;5.77;;;0.00;99.90;;;;;;5046025;28;20475;-57
2022/01/08 12:47:42;;;;;;;8.30;6.40;;;0.00;99.90;;;;;;5046898;28;20463;-57
2022/01/08 12:50:30;;;;;;;7.90;6.40;;;0.00;99.90;;;;;;5049259;28;20517;-57
2022/01/08 12:53:22;;;;;;;13.27;8.50;;;0.00;99.90;;;;;;5049116;28;20785;-57
2022/01/08 12:56:11;;;;;;;9.93;8.10;;;0.00;99.90;;;;;;5049797;28;20451;-57
2022/01/08 12:58:47;;;;;;;15.30;11.57;;;0.10;99.90;;;;;;5045966;28;20528;-58
2022/01/08 13:01:17;;;;;;;59.33;33.37;;;0.20;99.90;;;;;;5045978;28;20555;-57
2022/01/08 13:03:45;;;;;;;55.67;33.90;;;0.10;99.90;;;;;;5048775;28;20475;-57
2022/01/08 13:06:28;;;;;;;39.73;25.37;;;0.10;99.90;;;;;;5048008;28;20435;-65
2022/01/08 13:08:56;;;;;;;57.90;31.83;;;0.10;99.90;;;;;;5044332;28;20600;-57
2022/01/08 13:11:25;;;;;;;58.27;36.30;;;0.10;99.90;;;;;;5047269;28;20566;-58
2022/01/08 13:13:55;;;;;;;10.03;9.03;;;0.10;99.90;;;;;;5049841;28;20502;-57